sensor_id;sensor_type;location;lat;lon;timestamp;P1;durP1;ratioP1;P2;durP2;ratioP2
14470;SDS011;7321;50.802;4.336;2024-02-04T00:02:01;12.43;;;8.80;;
14470;SDS011;7321;50.802;4.336;2024-02-04T00:04:34;11.87;;;8.63;;
14470;SDS011;7321;50.802;4.336;2024-02-04T00:07:01;13.30;;;9.47;;
14470;SDS011;7321;50.802;4.336;2024-02-04T00:09:30;9.97;;;7.73;;
14470;SDS011;7321;50.802;4.336;2024-02-04T00:12:00;11.90;;;8.77;;
14470;SDS011;7321;50.802;4.336;2024-02-04T00:14:29;14.93;;;8.60;;
14470;SDS011;7321;50.802;4.336;2024-02-04T00:17:00;12.70;;;8.27;;
14470;SDS011;7321;50.802;4.336;2024-02-04T00:19:26;10.57;;;8.07;;
14470;SDS011;7321;50.802;4.336;2024-02-04T00:21:56;14.13;;;8.47;;
14470;SDS011;7321;50.802;4.336;2024-02-04T00:24:25;11.03;;;8.07;;
14470;SDS011;7321;50.802;4.336;2024-02-04T00:26:53;13.40;;;8.47;;
14470;SDS011;7321;50.802;4.336;2024-02-04T00:29:21;12.87;;;7.47;;
14470;SDS011;7321;50.802;4.336;2024-02-04T00:31:47;12.03;;;7.77;;
14470;SDS011;7321;50.802;4.336;2024-02-04T00:34:16;12.80;;;8.73;;
14470;SDS011;7321;50.802;4.336;2024-02-04T00:36:46;14.07;;;7.47;;
14470;SDS011;7321;50.802;4.336;2024-02-04T00:39:15;10.67;;;7.93;;
14470;SDS011;7321;50.802;4.336;2024-02-04T00:41:43;11.17;;;8.10;;
14470;SDS011;7321;50.802;4.336;2024-02-04T00:44:11;9.23;;;7.30;;
14470;SDS011;7321;50.802;4.336;2024-02-04T00:46:39;9.90;;;7.63;;
14470;SDS011;7321;50.802;4.336;2024-02-04T00:49:06;11.63;;;7.77;;
14470;SDS011;7321;50.802;4.336;2024-02-04T00:51:34;9.97;;;6.70;;
14470;SDS011;7321;50.802;4.336;2024-02-04T00:54:01;12.33;;;7.03;;
14470;SDS011;7321;50.802;4.336;2024-02-04T00:56:28;9.50;;;6.40;;
14470;SDS011;7321;50.802;4.336;2024-02-04T00:58:54;7.63;;;6.03;;
14470;SDS011;7321;50.802;4.336;2024-02-04T01:01:23;10.67;;;6.80;;
14470;SDS011;7321;50.802;4.336;2024-02-04T01:03:49;8.63;;;6.37;;
14470;SDS011;7321;50.802;4.336;2024-02-04T01:06:20;8.57;;;6.43;;
14470;SDS011;7321;50.802;4.336;2024-02-04T01:08:48;11.03;;;6.13;;
14470;SDS011;7321;50.802;4.336;2024-02-04T01:11:15;8.87;;;5.73;;
14470;SDS011;7321;50.802;4.336;2024-02-04T01:13:43;9.77;;;6.50;;
14470;SDS011;7321;50.802;4.336;2024-02-04T01:16:10;9.03;;;6.40;;
14470;SDS011;7321;50.802;4.336;2024-02-04T01:18:36;9.10;;;6.30;;
14470;SDS011;7321;50.802;4.336;2024-02-04T01:21:04;6.73;;;6.00;;
14470;SDS011;7321;50.802;4.336;2024-02-04T01:23:32;6.63;;;5.70;;
14470;SDS011;7321;50.802;4.336;2024-02-04T01:26:02;7.10;;;6.10;;
14470;SDS011;7321;50.802;4.336;2024-02-04T01:28:30;8.33;;;6.67;;
14470;SDS011;7321;50.802;4.336;2024-02-04T01:31:00;8.03;;;5.93;;
14470;SDS011;7321;50.802;4.336;2024-02-04T01:33:29;7.27;;;5.70;;
14470;SDS011;7321;50.802;4.336;2024-02-04T01:35:58;8.80;;;5.70;;
14470;SDS011;7321;50.802;4.336;2024-02-04T01:38:27;6.53;;;5.83;;
14470;SDS011;7321;50.802;4.336;2024-02-04T01:40:58;10.50;;;6.40;;
14470;SDS011;7321;50.802;4.336;2024-02-04T01:43:26;8.23;;;5.70;;
14470;SDS011;7321;50.802;4.336;2024-02-04T01:45:56;7.50;;;5.70;;
14470;SDS011;7321;50.802;4.336;2024-02-04T01:48:24;11.00;;;6.53;;
14470;SDS011;7321;50.802;4.336;2024-02-04T01:50:52;7.43;;;6.10;;
14470;SDS011;7321;50.802;4.336;2024-02-04T01:53:26;9.17;;;6.53;;
14470;SDS011;7321;50.802;4.336;2024-02-04T01:55:55;10.40;;;6.30;;
14470;SDS011;7321;50.802;4.336;2024-02-04T01:58:22;8.97;;;6.43;;
14470;SDS011;7321;50.802;4.336;2024-02-04T02:00:49;10.40;;;6.87;;
14470;SDS011;7321;50.802;4.336;2024-02-04T02:03:16;9.03;;;6.20;;
14470;SDS011;7321;50.802;4.336;2024-02-04T02:05:45;13.07;;;7.10;;
14470;SDS011;7321;50.802;4.336;2024-02-04T02:08:13;10.37;;;6.30;;
14470;SDS011;7321;50.802;4.336;2024-02-04T02:10:41;10.90;;;6.63;;
14470;SDS011;7321;50.802;4.336;2024-02-04T02:13:20;9.60;;;6.70;;
14470;SDS011;7321;50.802;4.336;2024-02-04T02:15:54;9.50;;;6.50;;
14470;SDS011;7321;50.802;4.336;2024-02-04T02:18:37;12.97;;;6.63;;
14470;SDS011;7321;50.802;4.336;2024-02-04T02:26:43;9.03;;;6.77;;
14470;SDS011;7321;50.802;4.336;2024-02-04T02:29:11;10.87;;;6.83;;
14470;SDS011;7321;50.802;4.336;2024-02-04T02:31:38;9.83;;;6.23;;
14470;SDS011;7321;50.802;4.336;2024-02-04T02:34:09;12.23;;;7.10;;
14470;SDS011;7321;50.802;4.336;2024-02-04T02:37:26;11.53;;;7.30;;
14470;SDS011;7321;50.802;4.336;2024-02-04T02:39:35;10.70;;;7.10;;
14470;SDS011;7321;50.802;4.336;2024-02-04T02:42:09;13.00;;;6.63;;
14470;SDS011;7321;50.802;4.336;2024-02-04T02:44:39;16.67;;;7.57;;
14470;SDS011;7321;50.802;4.336;2024-02-04T02:47:06;14.00;;;7.23;;
14470;SDS011;7321;50.802;4.336;2024-02-04T02:49:33;12.87;;;7.90;;
14470;SDS011;7321;50.802;4.336;2024-02-04T02:51:59;14.90;;;7.87;;
14470;SDS011;7321;50.802;4.336;2024-02-04T02:54:27;16.70;;;7.50;;
14470;SDS011;7321;50.802;4.336;2024-02-04T02:56:54;11.93;;;7.70;;
14470;SDS011;7321;50.802;4.336;2024-02-04T02:59:22;11.17;;;7.60;;
14470;SDS011;7321;50.802;4.336;2024-02-04T03:01:48;15.67;;;7.97;;
14470;SDS011;7321;50.802;4.336;2024-02-04T03:04:17;16.07;;;7.93;;
14470;SDS011;7321;50.802;4.336;2024-02-04T03:06:45;15.27;;;8.03;;
14470;SDS011;7321;50.802;4.336;2024-02-04T03:09:11;12.90;;;8.73;;
14470;SDS011;7321;50.802;4.336;2024-02-04T03:11:40;17.90;;;8.30;;
14470;SDS011;7321;50.802;4.336;2024-02-04T03:14:08;12.43;;;8.57;;
14470;SDS011;7321;50.802;4.336;2024-02-04T03:16:34;18.63;;;8.70;;
14470;SDS011;7321;50.802;4.336;2024-02-04T03:19:00;13.00;;;8.10;;
14470;SDS011;7321;50.802;4.336;2024-02-04T03:21:35;18.37;;;9.00;;
14470;SDS011;7321;50.802;4.336;2024-02-04T03:24:01;14.10;;;7.70;;
14470;SDS011;7321;50.802;4.336;2024-02-04T03:26:28;15.93;;;8.70;;
14470;SDS011;7321;50.802;4.336;2024-02-04T03:28:55;15.00;;;8.53;;
14470;SDS011;7321;50.802;4.336;2024-02-04T03:31:24;14.67;;;7.63;;
14470;SDS011;7321;50.802;4.336;2024-02-04T03:33:52;12.87;;;7.87;;
14470;SDS011;7321;50.802;4.336;2024-02-04T03:36:20;12.07;;;7.40;;
14470;SDS011;7321;50.802;4.336;2024-02-04T03:38:49;13.83;;;7.53;;
14470;SDS011;7321;50.802;4.336;2024-02-04T03:41:17;12.47;;;7.10;;
14470;SDS011;7321;50.802;4.336;2024-02-04T03:43:46;10.67;;;7.17;;
14470;SDS011;7321;50.802;4.336;2024-02-04T03:46:14;9.93;;;7.10;;
14470;SDS011;7321;50.802;4.336;2024-02-04T03:48:41;13.30;;;6.47;;
14470;SDS011;7321;50.802;4.336;2024-02-04T03:51:14;12.27;;;6.87;;
14470;SDS011;7321;50.802;4.336;2024-02-04T03:53:42;9.73;;;6.53;;
14470;SDS011;7321;50.802;4.336;2024-02-04T03:56:10;8.40;;;6.50;;
14470;SDS011;7321;50.802;4.336;2024-02-04T03:58:36;7.77;;;5.83;;
14470;SDS011;7321;50.802;4.336;2024-02-04T04:01:04;10.10;;;5.90;;
14470;SDS011;7321;50.802;4.336;2024-02-04T04:03:31;11.53;;;6.70;;
14470;SDS011;7321;50.802;4.336;2024-02-04T04:05:58;9.40;;;6.40;;
14470;SDS011;7321;50.802;4.336;2024-02-04T04:08:26;13.00;;;6.50;;
14470;SDS011;7321;50.802;4.336;2024-02-04T04:10:52;10.63;;;6.30;;
14470;SDS011;7321;50.802;4.336;2024-02-04T04:13:18;10.63;;;6.20;;
14470;SDS011;7321;50.802;4.336;2024-02-04T04:15:48;11.77;;;7.17;;
14470;SDS011;7321;50.802;4.336;2024-02-04T04:18:16;9.33;;;5.90;;
14470;SDS011;7321;50.802;4.336;2024-02-04T04:20:48;9.83;;;6.27;;
14470;SDS011;7321;50.802;4.336;2024-02-04T04:23:15;11.23;;;6.30;;
14470;SDS011;7321;50.802;4.336;2024-02-04T04:25:45;11.87;;;6.37;;
14470;SDS011;7321;50.802;4.336;2024-02-04T04:28:13;10.07;;;5.80;;
14470;SDS011;7321;50.802;4.336;2024-02-04T04:30:41;10.10;;;6.50;;
14470;SDS011;7321;50.802;4.336;2024-02-04T04:33:07;12.13;;;5.80;;
14470;SDS011;7321;50.802;4.336;2024-02-04T04:35:36;14.13;;;6.13;;
14470;SDS011;7321;50.802;4.336;2024-02-04T04:38:03;13.77;;;7.00;;
14470;SDS011;7321;50.802;4.336;2024-02-04T04:40:32;15.00;;;7.07;;
14470;SDS011;7321;50.802;4.336;2024-02-04T04:43:00;14.20;;;6.93;;
14470;SDS011;7321;50.802;4.336;2024-02-04T04:45:29;11.53;;;6.60;;
14470;SDS011;7321;50.802;4.336;2024-02-04T04:47:56;11.77;;;6.30;;
14470;SDS011;7321;50.802;4.336;2024-02-04T04:50:24;13.93;;;6.80;;
14470;SDS011;7321;50.802;4.336;2024-02-04T04:52:50;15.27;;;7.53;;
14470;SDS011;7321;50.802;4.336;2024-02-04T04:55:18;14.00;;;6.60;;
14470;SDS011;7321;50.802;4.336;2024-02-04T04:57:47;13.17;;;7.23;;
14470;SDS011;7321;50.802;4.336;2024-02-04T05:00:15;12.83;;;6.30;;
14470;SDS011;7321;50.802;4.336;2024-02-04T05:02:42;16.20;;;7.33;;
14470;SDS011;7321;50.802;4.336;2024-02-04T05:05:11;16.43;;;7.23;;
14470;SDS011;7321;50.802;4.336;2024-02-04T05:07:39;12.90;;;6.77;;
14470;SDS011;7321;50.802;4.336;2024-02-04T05:10:08;14.70;;;7.03;;
14470;SDS011;7321;50.802;4.336;2024-02-04T05:12:36;12.10;;;6.50;;
14470;SDS011;7321;50.802;4.336;2024-02-04T05:15:02;10.57;;;6.23;;
14470;SDS011;7321;50.802;4.336;2024-02-04T05:17:32;12.70;;;6.47;;
14470;SDS011;7321;50.802;4.336;2024-02-04T05:20:02;10.63;;;6.47;;
14470;SDS011;7321;50.802;4.336;2024-02-04T05:22:30;12.13;;;6.40;;
14470;SDS011;7321;50.802;4.336;2024-02-04T05:24:56;14.27;;;7.10;;
14470;SDS011;7321;50.802;4.336;2024-02-04T05:27:24;13.43;;;6.20;;
14470;SDS011;7321;50.802;4.336;2024-02-04T05:29:53;15.50;;;6.93;;
14470;SDS011;7321;50.802;4.336;2024-02-04T05:32:22;12.07;;;7.70;;
14470;SDS011;7321;50.802;4.336;2024-02-04T05:34:51;13.67;;;6.53;;
14470;SDS011;7321;50.802;4.336;2024-02-04T05:37:20;12.93;;;6.60;;
14470;SDS011;7321;50.802;4.336;2024-02-04T05:39:49;12.13;;;6.60;;
14470;SDS011;7321;50.802;4.336;2024-02-04T05:42:15;13.03;;;6.47;;
14470;SDS011;7321;50.802;4.336;2024-02-04T05:44:43;12.93;;;6.77;;
14470;SDS011;7321;50.802;4.336;2024-02-04T05:47:09;11.47;;;6.20;;
14470;SDS011;7321;50.802;4.336;2024-02-04T05:49:39;14.03;;;7.40;;
14470;SDS011;7321;50.802;4.336;2024-02-04T05:52:07;9.67;;;6.17;;
14470;SDS011;7321;50.802;4.336;2024-02-04T05:54:39;11.07;;;6.93;;
14470;SDS011;7321;50.802;4.336;2024-02-04T05:57:06;13.57;;;7.57;;
14470;SDS011;7321;50.802;4.336;2024-02-04T05:59:37;11.77;;;6.97;;
14470;SDS011;7321;50.802;4.336;2024-02-04T06:02:04;12.97;;;7.20;;
14470;SDS011;7321;50.802;4.336;2024-02-04T06:04:32;13.63;;;7.50;;
14470;SDS011;7321;50.802;4.336;2024-02-04T06:07:00;15.43;;;7.23;;
14470;SDS011;7321;50.802;4.336;2024-02-04T06:09:29;12.97;;;7.83;;
14470;SDS011;7321;50.802;4.336;2024-02-04T06:11:58;16.27;;;8.90;;
14470;SDS011;7321;50.802;4.336;2024-02-04T06:14:26;14.43;;;8.37;;
14470;SDS011;7321;50.802;4.336;2024-02-04T06:16:54;15.77;;;8.90;;
14470;SDS011;7321;50.802;4.336;2024-02-04T06:19:22;14.53;;;9.43;;
14470;SDS011;7321;50.802;4.336;2024-02-04T06:21:48;15.37;;;8.43;;
14470;SDS011;7321;50.802;4.336;2024-02-04T06:24:15;15.90;;;7.63;;
14470;SDS011;7321;50.802;4.336;2024-02-04T06:26:43;14.63;;;8.43;;
14470;SDS011;7321;50.802;4.336;2024-02-04T06:29:10;14.37;;;8.23;;
14470;SDS011;7321;50.802;4.336;2024-02-04T06:31:37;13.60;;;8.03;;
14470;SDS011;7321;50.802;4.336;2024-02-04T06:34:05;15.40;;;8.73;;
14470;SDS011;7321;50.802;4.336;2024-02-04T06:36:33;13.17;;;8.23;;
14470;SDS011;7321;50.802;4.336;2024-02-04T06:38:59;16.43;;;8.47;;
14470;SDS011;7321;50.802;4.336;2024-02-04T06:41:27;12.47;;;7.93;;
14470;SDS011;7321;50.802;4.336;2024-02-04T06:43:56;14.07;;;7.50;;
14470;SDS011;7321;50.802;4.336;2024-02-04T06:46:29;13.70;;;8.20;;
14470;SDS011;7321;50.802;4.336;2024-02-04T06:48:56;14.03;;;7.67;;
14470;SDS011;7321;50.802;4.336;2024-02-04T06:51:22;15.33;;;7.63;;
14470;SDS011;7321;50.802;4.336;2024-02-04T06:53:48;13.40;;;8.73;;
14470;SDS011;7321;50.802;4.336;2024-02-04T06:56:17;14.10;;;7.97;;
14470;SDS011;7321;50.802;4.336;2024-02-04T06:58:45;12.67;;;7.20;;
14470;SDS011;7321;50.802;4.336;2024-02-04T07:01:11;13.80;;;8.37;;
14470;SDS011;7321;50.802;4.336;2024-02-04T07:03:41;14.37;;;8.13;;
14470;SDS011;7321;50.802;4.336;2024-02-04T07:06:07;11.73;;;7.87;;
14470;SDS011;7321;50.802;4.336;2024-02-04T07:08:35;13.27;;;7.97;;
14470;SDS011;7321;50.802;4.336;2024-02-04T07:11:01;13.97;;;8.33;;
14470;SDS011;7321;50.802;4.336;2024-02-04T07:13:29;14.77;;;8.60;;
14470;SDS011;7321;50.802;4.336;2024-02-04T07:15:56;14.23;;;8.20;;
14470;SDS011;7321;50.802;4.336;2024-02-04T07:18:24;20.57;;;9.13;;
14470;SDS011;7321;50.802;4.336;2024-02-04T07:20:53;17.53;;;8.70;;
14470;SDS011;7321;50.802;4.336;2024-02-04T07:23:21;14.17;;;8.77;;
14470;SDS011;7321;50.802;4.336;2024-02-04T07:25:50;20.80;;;9.50;;
14470;SDS011;7321;50.802;4.336;2024-02-04T07:28:17;15.87;;;9.10;;
14470;SDS011;7321;50.802;4.336;2024-02-04T07:30:43;17.17;;;9.60;;
14470;SDS011;7321;50.802;4.336;2024-02-04T07:33:12;14.47;;;8.37;;
14470;SDS011;7321;50.802;4.336;2024-02-04T07:35:38;24.20;;;10.80;;
14470;SDS011;7321;50.802;4.336;2024-02-04T07:38:06;15.03;;;9.80;;
14470;SDS011;7321;50.802;4.336;2024-02-04T07:40:37;17.13;;;10.33;;
14470;SDS011;7321;50.802;4.336;2024-02-04T07:43:06;15.07;;;8.77;;
14470;SDS011;7321;50.802;4.336;2024-02-04T07:45:35;13.17;;;9.13;;
14470;SDS011;7321;50.802;4.336;2024-02-04T07:48:01;13.90;;;9.60;;
14470;SDS011;7321;50.802;4.336;2024-02-04T07:50:29;13.73;;;9.00;;
14470;SDS011;7321;50.802;4.336;2024-02-04T07:52:56;15.37;;;9.13;;
14470;SDS011;7321;50.802;4.336;2024-02-04T07:55:25;12.97;;;8.47;;
14470;SDS011;7321;50.802;4.336;2024-02-04T07:57:53;11.37;;;8.40;;
14470;SDS011;7321;50.802;4.336;2024-02-04T08:00:21;10.77;;;8.03;;
14470;SDS011;7321;50.802;4.336;2024-02-04T08:02:49;13.20;;;7.73;;
14470;SDS011;7321;50.802;4.336;2024-02-04T08:05:16;13.50;;;7.97;;
14470;SDS011;7321;50.802;4.336;2024-02-04T08:07:44;14.00;;;8.20;;
14470;SDS011;7321;50.802;4.336;2024-02-04T08:10:11;12.57;;;7.57;;
14470;SDS011;7321;50.802;4.336;2024-02-04T08:12:38;13.33;;;7.40;;
14470;SDS011;7321;50.802;4.336;2024-02-04T08:15:07;14.53;;;7.20;;
14470;SDS011;7321;50.802;4.336;2024-02-04T08:17:35;12.43;;;7.00;;
14470;SDS011;7321;50.802;4.336;2024-02-04T08:20:03;11.87;;;8.27;;
14470;SDS011;7321;50.802;4.336;2024-02-04T08:22:33;11.97;;;7.23;;
14470;SDS011;7321;50.802;4.336;2024-02-04T08:25:00;11.40;;;7.13;;
14470;SDS011;7321;50.802;4.336;2024-02-04T08:27:28;10.97;;;7.27;;
14470;SDS011;7321;50.802;4.336;2024-02-04T08:29:59;12.03;;;7.20;;
14470;SDS011;7321;50.802;4.336;2024-02-04T08:32:26;11.67;;;7.53;;
14470;SDS011;7321;50.802;4.336;2024-02-04T08:34:54;9.33;;;6.80;;
14470;SDS011;7321;50.802;4.336;2024-02-04T08:37:20;9.60;;;6.53;;
14470;SDS011;7321;50.802;4.336;2024-02-04T08:39:49;11.70;;;7.10;;
14470;SDS011;7321;50.802;4.336;2024-02-04T08:42:16;9.63;;;6.27;;
14470;SDS011;7321;50.802;4.336;2024-02-04T08:44:42;11.87;;;6.30;;
14470;SDS011;7321;50.802;4.336;2024-02-04T08:47:11;13.50;;;7.67;;
14470;SDS011;7321;50.802;4.336;2024-02-04T08:49:42;20.27;;;11.93;;
14470;SDS011;7321;50.802;4.336;2024-02-04T08:55:36;8.00;;;5.10;;
14470;SDS011;7321;50.802;4.336;2024-02-04T08:58:09;8.70;;;5.00;;
14470;SDS011;7321;50.802;4.336;2024-02-04T09:01:01;9.73;;;6.20;;
14470;SDS011;7321;50.802;4.336;2024-02-04T09:03:27;8.67;;;4.13;;
14470;SDS011;7321;50.802;4.336;2024-02-04T09:05:53;5.37;;;4.00;;
14470;SDS011;7321;50.802;4.336;2024-02-04T09:08:20;7.10;;;4.50;;
14470;SDS011;7321;50.802;4.336;2024-02-04T09:10:46;7.87;;;3.80;;
14470;SDS011;7321;50.802;4.336;2024-02-04T09:13:13;6.27;;;4.30;;
14470;SDS011;7321;50.802;4.336;2024-02-04T09:15:45;8.10;;;4.10;;
14470;SDS011;7321;50.802;4.336;2024-02-04T09:18:21;6.87;;;3.53;;
14470;SDS011;7321;50.802;4.336;2024-02-04T09:20:48;7.03;;;3.50;;
14470;SDS011;7321;50.802;4.336;2024-02-04T09:23:16;8.23;;;3.47;;
14470;SDS011;7321;50.802;4.336;2024-02-04T09:25:43;5.90;;;2.97;;
14470;SDS011;7321;50.802;4.336;2024-02-04T09:28:11;8.23;;;2.93;;
14470;SDS011;7321;50.802;4.336;2024-02-04T09:30:38;3.47;;;2.90;;
14470;SDS011;7321;50.802;4.336;2024-02-04T09:33:07;6.37;;;2.70;;
14470;SDS011;7321;50.802;4.336;2024-02-04T09:35:35;4.10;;;2.50;;
14470;SDS011;7321;50.802;4.336;2024-02-04T09:38:26;5.23;;;2.87;;
14470;SDS011;7321;50.802;4.336;2024-02-04T09:40:54;4.80;;;3.50;;
14470;SDS011;7321;50.802;4.336;2024-02-04T09:43:21;8.47;;;4.07;;
14470;SDS011;7321;50.802;4.336;2024-02-04T09:45:51;6.03;;;3.13;;
14470;SDS011;7321;50.802;4.336;2024-02-04T09:48:18;6.90;;;2.70;;
14470;SDS011;7321;50.802;4.336;2024-02-04T09:50:46;7.03;;;4.37;;
14470;SDS011;7321;50.802;4.336;2024-02-04T09:53:14;5.10;;;3.53;;
14470;SDS011;7321;50.802;4.336;2024-02-04T09:55:46;6.03;;;3.60;;
14470;SDS011;7321;50.802;4.336;2024-02-04T09:58:17;4.10;;;3.20;;
14470;SDS011;7321;50.802;4.336;2024-02-04T10:00:45;4.30;;;3.13;;
14470;SDS011;7321;50.802;4.336;2024-02-04T10:03:15;6.73;;;4.23;;
14470;SDS011;7321;50.802;4.336;2024-02-04T10:05:43;4.67;;;3.70;;
14470;SDS011;7321;50.802;4.336;2024-02-04T10:08:10;5.90;;;4.63;;
14470;SDS011;7321;50.802;4.336;2024-02-04T10:10:37;6.80;;;4.87;;
14470;SDS011;7321;50.802;4.336;2024-02-04T10:13:08;6.47;;;4.83;;
14470;SDS011;7321;50.802;4.336;2024-02-04T10:15:34;7.37;;;4.73;;
14470;SDS011;7321;50.802;4.336;2024-02-04T10:18:02;9.03;;;5.30;;
14470;SDS011;7321;50.802;4.336;2024-02-04T10:20:30;6.97;;;4.97;;
14470;SDS011;7321;50.802;4.336;2024-02-04T10:22:57;6.07;;;4.80;;
14470;SDS011;7321;50.802;4.336;2024-02-04T10:25:26;7.80;;;5.00;;
14470;SDS011;7321;50.802;4.336;2024-02-04T10:27:53;6.93;;;4.77;;
14470;SDS011;7321;50.802;4.336;2024-02-04T10:30:20;8.47;;;4.23;;
14470;SDS011;7321;50.802;4.336;2024-02-04T10:32:52;4.20;;;3.80;;
14470;SDS011;7321;50.802;4.336;2024-02-04T10:35:23;6.43;;;4.30;;
14470;SDS011;7321;50.802;4.336;2024-02-04T10:37:50;5.03;;;3.77;;
14470;SDS011;7321;50.802;4.336;2024-02-04T10:40:18;10.30;;;6.97;;
14470;SDS011;7321;50.802;4.336;2024-02-04T10:42:46;3.87;;;3.13;;
14470;SDS011;7321;50.802;4.336;2024-02-04T10:45:17;12.23;;;8.33;;
14470;SDS011;7321;50.802;4.336;2024-02-04T10:47:50;8.23;;;5.30;;
14470;SDS011;7321;50.802;4.336;2024-02-04T10:50:24;9.50;;;5.27;;
14470;SDS011;7321;50.802;4.336;2024-02-04T10:52:53;6.37;;;3.53;;
14470;SDS011;7321;50.802;4.336;2024-02-04T10:55:26;6.03;;;3.37;;
14470;SDS011;7321;50.802;4.336;2024-02-04T10:57:56;5.47;;;2.50;;
14470;SDS011;7321;50.802;4.336;2024-02-04T11:00:25;5.00;;;2.13;;
14470;SDS011;7321;50.802;4.336;2024-02-04T11:02:56;3.57;;;2.47;;
14470;SDS011;7321;50.802;4.336;2024-02-04T11:05:30;2.80;;;1.67;;
14470;SDS011;7321;50.802;4.336;2024-02-04T11:08:05;3.83;;;2.60;;
14470;SDS011;7321;50.802;4.336;2024-02-04T11:10:34;4.73;;;2.87;;
14470;SDS011;7321;50.802;4.336;2024-02-04T11:13:11;4.03;;;2.83;;
14470;SDS011;7321;50.802;4.336;2024-02-04T11:15:37;3.97;;;2.20;;
14470;SDS011;7321;50.802;4.336;2024-02-04T11:18:27;3.90;;;2.30;;
14470;SDS011;7321;50.802;4.336;2024-02-04T11:24:27;2.87;;;2.07;;
14470;SDS011;7321;50.802;4.336;2024-02-04T11:27:05;3.10;;;2.23;;
14470;SDS011;7321;50.802;4.336;2024-02-04T11:29:32;2.20;;;1.63;;
14470;SDS011;7321;50.802;4.336;2024-02-04T11:32:03;2.87;;;1.80;;
14470;SDS011;7321;50.802;4.336;2024-02-04T11:34:32;3.73;;;2.07;;
14470;SDS011;7321;50.802;4.336;2024-02-04T11:36:59;5.23;;;1.77;;
14470;SDS011;7321;50.802;4.336;2024-02-04T11:39:29;5.67;;;2.40;;
14470;SDS011;7321;50.802;4.336;2024-02-04T11:41:56;2.47;;;2.10;;
14470;SDS011;7321;50.802;4.336;2024-02-04T11:44:24;3.13;;;1.93;;
14470;SDS011;7321;50.802;4.336;2024-02-04T11:46:55;2.87;;;1.70;;
14470;SDS011;7321;50.802;4.336;2024-02-04T11:49:24;3.67;;;2.13;;
14470;SDS011;7321;50.802;4.336;2024-02-04T11:51:52;3.37;;;2.30;;
14470;SDS011;7321;50.802;4.336;2024-02-04T11:54:20;2.87;;;2.00;;
14470;SDS011;7321;50.802;4.336;2024-02-04T11:56:48;5.07;;;2.10;;
14470;SDS011;7321;50.802;4.336;2024-02-04T11:59:23;3.20;;;2.60;;
14470;SDS011;7321;50.802;4.336;2024-02-04T12:01:55;4.33;;;2.23;;
14470;SDS011;7321;50.802;4.336;2024-02-04T12:04:22;4.13;;;2.13;;
14470;SDS011;7321;50.802;4.336;2024-02-04T12:06:49;3.80;;;2.37;;
14470;SDS011;7321;50.802;4.336;2024-02-04T12:09:21;2.63;;;1.90;;
14470;SDS011;7321;50.802;4.336;2024-02-04T12:11:50;2.63;;;1.93;;
14470;SDS011;7321;50.802;4.336;2024-02-04T12:14:21;2.83;;;2.10;;
14470;SDS011;7321;50.802;4.336;2024-02-04T12:16:49;3.73;;;2.20;;
14470;SDS011;7321;50.802;4.336;2024-02-04T12:19:15;5.70;;;2.43;;
14470;SDS011;7321;50.802;4.336;2024-02-04T12:21:42;5.93;;;2.90;;
14470;SDS011;7321;50.802;4.336;2024-02-04T12:24:09;3.30;;;2.40;;
14470;SDS011;7321;50.802;4.336;2024-02-04T12:26:36;5.17;;;2.87;;
14470;SDS011;7321;50.802;4.336;2024-02-04T12:29:06;3.03;;;2.43;;
14470;SDS011;7321;50.802;4.336;2024-02-04T12:31:33;4.60;;;2.20;;
14470;SDS011;7321;50.802;4.336;2024-02-04T12:34:01;3.60;;;2.73;;
14470;SDS011;7321;50.802;4.336;2024-02-04T12:36:31;2.87;;;2.63;;
14470;SDS011;7321;50.802;4.336;2024-02-04T12:38:59;4.27;;;2.63;;
14470;SDS011;7321;50.802;4.336;2024-02-04T12:41:28;4.40;;;2.70;;
14470;SDS011;7321;50.802;4.336;2024-02-04T12:43:59;3.10;;;2.70;;
14470;SDS011;7321;50.802;4.336;2024-02-04T12:46:31;3.53;;;2.53;;
14470;SDS011;7321;50.802;4.336;2024-02-04T12:48:59;2.33;;;2.10;;
14470;SDS011;7321;50.802;4.336;2024-02-04T12:54:08;5.93;;;2.80;;
14470;SDS011;7321;50.802;4.336;2024-02-04T12:56:47;3.47;;;2.70;;
14470;SDS011;7321;50.802;4.336;2024-02-04T12:59:28;3.33;;;3.03;;
14470;SDS011;7321;50.802;4.336;2024-02-04T13:02:00;4.33;;;2.50;;
14470;SDS011;7321;50.802;4.336;2024-02-04T13:07:06;4.33;;;2.50;;
14470;SDS011;7321;50.802;4.336;2024-02-04T13:09:35;5.30;;;3.10;;
14470;SDS011;7321;50.802;4.336;2024-02-04T13:12:03;2.77;;;2.40;;
14470;SDS011;7321;50.802;4.336;2024-02-04T13:14:35;3.97;;;2.97;;
14470;SDS011;7321;50.802;4.336;2024-02-04T13:17:06;3.30;;;2.80;;
14470;SDS011;7321;50.802;4.336;2024-02-04T13:19:36;4.13;;;3.10;;
14470;SDS011;7321;50.802;4.336;2024-02-04T13:22:06;3.40;;;2.73;;
14470;SDS011;7321;50.802;4.336;2024-02-04T13:24:38;3.60;;;2.70;;
14470;SDS011;7321;50.802;4.336;2024-02-04T13:27:06;3.67;;;2.80;;
14470;SDS011;7321;50.802;4.336;2024-02-04T13:29:36;3.20;;;2.00;;
14470;SDS011;7321;50.802;4.336;2024-02-04T13:32:06;3.13;;;2.07;;
14470;SDS011;7321;50.802;4.336;2024-02-04T13:34:36;2.80;;;2.60;;
14470;SDS011;7321;50.802;4.336;2024-02-04T13:37:05;3.77;;;3.20;;
14470;SDS011;7321;50.802;4.336;2024-02-04T13:39:33;3.30;;;3.00;;
14470;SDS011;7321;50.802;4.336;2024-02-04T13:42:01;4.40;;;3.10;;
14470;SDS011;7321;50.802;4.336;2024-02-04T13:44:31;4.67;;;2.73;;
14470;SDS011;7321;50.802;4.336;2024-02-04T13:46:57;4.13;;;2.63;;
14470;SDS011;7321;50.802;4.336;2024-02-04T13:49:23;8.00;;;3.73;;
14470;SDS011;7321;50.802;4.336;2024-02-04T13:51:49;3.43;;;3.13;;
14470;SDS011;7321;50.802;4.336;2024-02-04T13:54:15;4.63;;;2.70;;
14470;SDS011;7321;50.802;4.336;2024-02-04T13:56:40;5.97;;;3.50;;
14470;SDS011;7321;50.802;4.336;2024-02-04T13:59:06;6.97;;;3.77;;
14470;SDS011;7321;50.802;4.336;2024-02-04T14:01:35;5.70;;;3.50;;
14470;SDS011;7321;50.802;4.336;2024-02-04T14:04:01;4.57;;;3.43;;
14470;SDS011;7321;50.802;4.336;2024-02-04T14:06:27;5.63;;;3.37;;
14470;SDS011;7321;50.802;4.336;2024-02-04T14:08:56;4.93;;;3.10;;
14470;SDS011;7321;50.802;4.336;2024-02-04T14:11:22;6.93;;;3.07;;
14470;SDS011;7321;50.802;4.336;2024-02-04T14:13:48;5.07;;;3.27;;
14470;SDS011;7321;50.802;4.336;2024-02-04T14:16:14;5.03;;;3.27;;
14470;SDS011;7321;50.802;4.336;2024-02-04T14:18:42;4.27;;;3.23;;
14470;SDS011;7321;50.802;4.336;2024-02-04T14:21:11;5.07;;;3.50;;
14470;SDS011;7321;50.802;4.336;2024-02-04T14:23:39;7.07;;;3.70;;
14470;SDS011;7321;50.802;4.336;2024-02-04T14:26:05;6.37;;;3.70;;
14470;SDS011;7321;50.802;4.336;2024-02-04T14:28:35;5.63;;;3.17;;
14470;SDS011;7321;50.802;4.336;2024-02-04T14:31:07;5.70;;;3.23;;
14470;SDS011;7321;50.802;4.336;2024-02-04T14:33:35;4.00;;;3.10;;
14470;SDS011;7321;50.802;4.336;2024-02-04T14:36:01;4.27;;;3.17;;
14470;SDS011;7321;50.802;4.336;2024-02-04T14:38:29;8.90;;;3.40;;
14470;SDS011;7321;50.802;4.336;2024-02-04T14:40:58;6.50;;;3.30;;
14470;SDS011;7321;50.802;4.336;2024-02-04T14:43:27;8.63;;;4.90;;
14470;SDS011;7321;50.802;4.336;2024-02-04T14:45:53;5.73;;;3.50;;
14470;SDS011;7321;50.802;4.336;2024-02-04T14:48:19;5.20;;;3.30;;
14470;SDS011;7321;50.802;4.336;2024-02-04T14:50:45;7.90;;;3.87;;
14470;SDS011;7321;50.802;4.336;2024-02-04T14:53:11;5.40;;;3.40;;
14470;SDS011;7321;50.802;4.336;2024-02-04T14:55:37;5.33;;;3.87;;
14470;SDS011;7321;50.802;4.336;2024-02-04T14:58:03;4.33;;;3.17;;
14470;SDS011;7321;50.802;4.336;2024-02-04T15:00:29;5.93;;;3.63;;
14470;SDS011;7321;50.802;4.336;2024-02-04T15:02:55;6.40;;;3.33;;
14470;SDS011;7321;50.802;4.336;2024-02-04T15:05:21;7.57;;;3.70;;
14470;SDS011;7321;50.802;4.336;2024-02-04T15:07:47;5.57;;;3.43;;
14470;SDS011;7321;50.802;4.336;2024-02-04T15:10:14;8.87;;;3.50;;
14470;SDS011;7321;50.802;4.336;2024-02-04T15:12:40;8.23;;;3.70;;
14470;SDS011;7321;50.802;4.336;2024-02-04T15:15:07;8.20;;;4.13;;
14470;SDS011;7321;50.802;4.336;2024-02-04T15:17:33;7.53;;;3.77;;
14470;SDS011;7321;50.802;4.336;2024-02-04T15:19:59;6.40;;;3.83;;
14470;SDS011;7321;50.802;4.336;2024-02-04T15:22:25;6.30;;;3.90;;